Time;durP1;ratioP1;P1;durP2;ratioP2;P2;SDS_P1;SDS_P2;PMS_P1;PMS_P2;Temp;Humidity;BMP_temperature;BMP_pressure;BME280_temperature;BME280_humidity;BME280_pressure;Samples;Min_cycle;Max_cycle;Signal;HPM_P1;HPM_P2
2022/06/07 00:00:57;;;;;;;3.80;3.50;;;15.60;99.90;;;;;;5073795;28;20254;-73
2022/06/07 00:03:23;;;;;;;4.87;4.47;;;15.60;99.90;;;;;;5073791;28;20228;-73
2022/06/07 00:05:50;;;;;;;4.57;4.10;;;15.60;99.90;;;;;;5073753;28;20233;-73
2022/06/07 00:08:18;;;;;;;5.07;4.27;;;15.60;99.90;;;;;;5073741;28;20252;-72
2022/06/07 00:10:45;;;;;;;5.67;4.17;;;15.50;99.90;;;;;;5073499;28;20656;-72
2022/06/07 00:13:12;;;;;;;5.63;4.13;;;15.50;99.90;;;;;;5073858;28;20201;-72
2022/06/07 00:15:41;;;;;;;4.23;3.93;;;15.50;99.90;;;;;;5073687;28;20243;-73
2022/06/07 00:18:08;;;;;;;5.53;4.03;;;15.40;99.90;;;;;;5073245;28;20203;-73
2022/06/07 00:20:35;;;;;;;8.27;4.30;;;15.40;99.90;;;;;;5073496;28;20197;-73
2022/06/07 00:23:05;;;;;;;4.43;4.00;;;15.40;99.90;;;;;;5073293;28;20216;-72
2022/06/07 00:25:32;;;;;;;5.40;4.30;;;15.50;99.90;;;;;;5073570;28;20201;-73
2022/06/07 00:27:58;;;;;;;4.40;4.00;;;15.50;99.90;;;;;;5073356;28;20656;-72
2022/06/07 00:30:25;;;;;;;4.60;4.20;;;15.40;99.90;;;;;;5073363;28;20263;-73
2022/06/07 00:32:54;;;;;;;5.73;4.33;;;15.40;99.90;;;;;;5073337;28;20231;-73
2022/06/07 00:35:21;;;;;;;4.33;3.93;;;15.40;99.90;;;;;;5073167;28;20621;-73
2022/06/07 00:37:48;;;;;;;5.50;4.70;;;15.30;99.90;;;;;;5073000;28;20258;-72
2022/06/07 00:40:15;;;;;;;4.47;4.10;;;15.30;99.90;;;;;;5073283;28;20270;-72
2022/06/07 00:42:42;;;;;;;4.17;3.77;;;15.30;99.90;;;;;;5073179;28;20217;-72
2022/06/07 00:45:13;;;;;;;5.77;4.10;;;15.30;99.90;;;;;;5073461;28;20209;-73
2022/06/07 00:47:40;;;;;;;6.73;4.03;;;15.30;99.90;;;;;;5072959;28;20259;-73
2022/06/07 00:50:15;;;;;;;4.77;4.27;;;15.40;99.90;;;;;;5072959;28;20201;-73
2022/06/07 00:52:42;;;;;;;4.70;4.30;;;15.40;99.90;;;;;;5073135;28;20240;-73
2022/06/07 00:55:10;;;;;;;5.47;4.13;;;15.40;99.90;;;;;;5073256;28;20204;-73
2022/06/07 00:57:37;;;;;;;5.00;4.10;;;15.40;99.90;;;;;;5073136;28;20242;-72
2022/06/07 01:00:06;;;;;;;5.27;4.30;;;15.30;99.90;;;;;;5073050;28;20204;-73
2022/06/07 01:02:33;;;;;;;4.27;3.87;;;15.30;99.90;;;;;;5072759;28;20274;-73
2022/06/07 01:05:01;;;;;;;5.00;4.23;;;15.30;99.90;;;;;;5072732;28;20228;-73
2022/06/07 01:12:57;;;;;;;5.30;4.43;;;15.30;99.90;;;;;;5072755;28;20223;-72
2022/06/07 01:15:23;;;;;;;7.03;4.30;;;15.30;99.90;;;;;;5072584;28;20197;-72
2022/06/07 01:17:50;;;;;;;5.77;4.20;;;15.30;99.90;;;;;;5072779;28;20243;-73
2022/06/07 01:20:17;;;;;;;5.43;3.93;;;15.40;99.90;;;;;;5072576;28;20718;-73
2022/06/07 01:22:45;;;;;;;4.60;4.20;;;15.30;99.90;;;;;;5072558;28;20205;-73
2022/06/07 01:25:12;;;;;;;4.67;4.27;;;15.30;99.90;;;;;;5072683;28;20607;-73
2022/06/07 01:27:38;;;;;;;4.60;4.20;;;15.20;99.90;;;;;;5072550;28;20201;-73
2022/06/07 01:30:06;;;;;;;4.50;4.10;;;15.20;99.90;;;;;;5073346;28;20201;-73
2022/06/07 01:32:33;;;;;;;4.20;3.77;;;15.30;99.90;;;;;;5076804;28;20193;-73
2022/06/07 01:35:00;;;;;;;4.87;3.90;;;15.30;99.90;;;;;;5076802;28;20196;-72
2022/06/07 01:37:26;;;;;;;4.87;4.37;;;15.30;99.90;;;;;;5076833;28;20197;-73
2022/06/07 01:42:38;;;;;;;5.43;3.73;;;15.30;99.90;;;;;;5076706;28;20196;-73
2022/06/07 01:45:06;;;;;;;6.57;4.00;;;15.30;99.90;;;;;;5076592;28;20197;-72
2022/06/07 01:47:34;;;;;;;4.60;4.07;;;15.30;99.90;;;;;;5076357;28;20235;-74
2022/06/07 01:50:02;;;;;;;4.50;4.10;;;15.30;99.90;;;;;;5076425;28;20250;-73
2022/06/07 01:52:31;;;;;;;5.83;4.50;;;15.30;99.90;;;;;;5076246;28;20600;-72
2022/06/07 01:54:59;;;;;;;4.30;3.90;;;15.30;99.90;;;;;;5076231;28;20212;-72
2022/06/07 01:57:26;;;;;;;5.10;4.00;;;15.30;99.90;;;;;;5076414;28;20715;-73
2022/06/07 01:59:52;;;;;;;7.47;4.07;;;15.40;99.90;;;;;;5076147;28;20655;-72
2022/06/07 02:02:22;;;;;;;5.53;4.37;;;15.40;99.90;;;;;;5076084;28;20644;-72
2022/06/07 02:04:48;;;;;;;4.67;4.20;;;15.40;99.90;;;;;;5076088;28;20229;-73
2022/06/07 02:07:16;;;;;;;4.57;4.03;;;15.30;99.90;;;;;;5076010;28;20197;-73
2022/06/07 02:09:43;;;;;;;9.23;4.40;;;15.40;99.90;;;;;;5076199;28;20207;-72
2022/06/07 02:12:12;;;;;;;8.07;4.23;;;15.30;99.90;;;;;;5076045;28;20193;-73
2022/06/07 02:14:39;;;;;;;5.23;4.73;;;15.30;99.90;;;;;;5075987;28;20270;-73
2022/06/07 02:17:06;;;;;;;4.77;4.10;;;15.20;99.90;;;;;;5076070;28;20296;-72
2022/06/07 02:19:33;;;;;;;5.43;4.27;;;15.30;99.90;;;;;;5075853;28;20197;-73
2022/06/07 02:21:59;;;;;;;6.43;4.27;;;15.30;99.90;;;;;;5075742;28;20562;-73
2022/06/07 02:24:26;;;;;;;6.87;4.73;;;15.30;99.90;;;;;;5075687;28;20278;-73
2022/06/07 02:26:57;;;;;;;6.07;4.60;;;15.30;99.90;;;;;;5075824;28;20197;-73
2022/06/07 02:29:29;;;;;;;4.50;4.10;;;15.40;99.90;;;;;;5075812;28;20197;-73
2022/06/07 02:31:59;;;;;;;7.07;4.10;;;15.40;99.90;;;;;;5075566;28;20327;-73
2022/06/07 02:34:27;;;;;;;6.37;4.30;;;15.40;99.90;;;;;;5075484;28;20259;-73
2022/06/07 02:36:56;;;;;;;4.33;3.97;;;15.40;99.90;;;;;;5075664;28;20205;-73
2022/06/07 02:39:24;;;;;;;4.60;4.20;;;15.40;99.90;;;;;;5075798;28;20205;-73
2022/06/07 02:41:51;;;;;;;4.90;4.37;;;15.40;99.90;;;;;;5075714;28;20197;-73
2022/06/07 02:44:18;;;;;;;7.30;4.20;;;15.40;99.90;;;;;;5075316;28;20229;-73
2022/06/07 02:46:46;;;;;;;5.87;3.97;;;15.40;99.90;;;;;;5075266;28;20201;-73
2022/06/07 02:49:13;;;;;;;5.20;3.90;;;15.40;99.90;;;;;;5075063;28;20240;-73
2022/06/07 02:51:39;;;;;;;4.77;4.00;;;15.30;99.90;;;;;;5075154;28;20209;-73
2022/06/07 02:54:06;;;;;;;6.37;4.20;;;15.30;99.90;;;;;;5075243;28;20197;-73
2022/06/07 02:56:33;;;;;;;4.93;4.47;;;15.30;99.90;;;;;;5075206;28;20197;-73
2022/06/07 02:58:59;;;;;;;5.77;4.40;;;15.20;99.90;;;;;;5075158;28;20201;-73
2022/06/07 03:01:28;;;;;;;6.57;4.87;;;15.20;99.90;;;;;;5075015;28;20201;-73
2022/06/07 03:03:58;;;;;;;4.93;4.53;;;15.20;99.90;;;;;;5075163;28;20588;-73
2022/06/07 03:06:25;;;;;;;5.00;4.50;;;15.20;99.90;;;;;;5075078;28;20205;-73
2022/06/07 03:08:52;;;;;;;8.13;5.00;;;15.10;99.90;;;;;;5075013;28;20254;-73
2022/06/07 03:11:18;;;;;;;6.60;4.83;;;15.10;99.90;;;;;;5074828;28;20193;-73
2022/06/07 03:13:46;;;;;;;5.27;4.73;;;15.10;99.90;;;;;;5074799;28;20216;-73
2022/06/07 03:16:13;;;;;;;6.93;5.70;;;15.10;99.90;;;;;;5075048;28;20204;-73
2022/06/07 03:18:39;;;;;;;5.13;4.53;;;15.10;99.90;;;;;;5074888;28;20243;-73
2022/06/07 03:21:07;;;;;;;5.90;5.40;;;15.10;99.90;;;;;;5074759;28;20197;-73
2022/06/07 03:23:34;;;;;;;5.90;5.30;;;15.10;99.90;;;;;;5074686;28;20217;-73
2022/06/07 03:26:05;;;;;;;5.87;5.27;;;15.10;99.90;;;;;;5074653;28;20193;-73
2022/06/07 03:28:32;;;;;;;5.87;5.10;;;15.10;99.90;;;;;;5074451;28;20330;-73
2022/06/07 03:31:05;;;;;;;6.90;5.33;;;15.10;99.90;;;;;;5074410;28;20196;-73
2022/06/07 03:33:34;;;;;;;5.87;5.30;;;15.00;99.90;;;;;;5074698;28;20308;-73
2022/06/07 03:36:07;;;;;;;9.83;5.60;;;14.90;99.90;;;;;;5074413;28;20201;-73
2022/06/07 03:38:34;;;;;;;5.53;5.03;;;14.80;99.90;;;;;;5074472;28;20231;-73
2022/06/07 03:41:01;;;;;;;8.53;5.70;;;14.70;99.90;;;;;;5074307;28;20201;-73
2022/06/07 03:43:28;;;;;;;7.17;5.27;;;14.70;99.90;;;;;;5074290;28;20193;-73
2022/06/07 03:45:55;;;;;;;7.73;5.30;;;14.70;99.90;;;;;;5074322;28;20205;-73
2022/06/07 03:48:22;;;;;;;6.13;5.60;;;14.70;99.90;;;;;;5074006;28;20225;-73
2022/06/07 03:50:49;;;;;;;7.37;5.60;;;14.70;99.90;;;;;;5074009;28;20660;-73
2022/06/07 03:53:18;;;;;;;7.37;5.10;;;14.80;99.90;;;;;;5073495;28;20205;-73
2022/06/07 03:55:47;;;;;;;5.77;5.17;;;14.80;99.90;;;;;;5073955;28;20292;-73
2022/06/07 03:58:15;;;;;;;8.30;6.43;;;14.80;99.90;;;;;;5074166;28;20624;-73
2022/06/07 04:00:43;;;;;;;9.60;5.60;;;14.80;99.90;;;;;;5073960;28;20194;-73
2022/06/07 04:03:10;;;;;;;5.80;5.20;;;14.90;99.90;;;;;;5074065;28;20276;-73
2022/06/07 04:05:40;;;;;;;5.97;5.27;;;14.90;99.90;;;;;;5073753;28;20316;-73
2022/06/07 04:08:13;;;;;;;8.97;5.53;;;14.90;99.90;;;;;;5074171;28;20288;-73
2022/06/07 04:10:49;;;;;;;6.70;5.43;;;15.00;99.90;;;;;;5073886;28;20204;-73
2022/06/07 04:13:17;;;;;;;6.80;5.03;;;15.00;99.90;;;;;;5073795;28;20258;-73
2022/06/07 04:15:44;;;;;;;5.77;5.03;;;15.10;99.90;;;;;;5073662;28;20254;-73
2022/06/07 04:18:10;;;;;;;5.80;5.10;;;15.10;99.90;;;;;;5073625;28;20197;-73
2022/06/07 04:20:38;;;;;;;5.67;4.43;;;15.10;99.90;;;;;;5073422;28;20296;-73
2022/06/07 04:23:05;;;;;;;5.20;4.70;;;15.20;99.90;;;;;;5073395;28;20656;-73
2022/06/07 04:25:35;;;;;;;7.93;4.60;;;15.30;99.90;;;;;;5073644;28;20225;-73
2022/06/07 04:28:03;;;;;;;5.47;3.90;;;15.30;99.90;;;;;;5073645;28;20254;-73
2022/06/07 04:30:31;;;;;;;4.77;4.27;;;15.40;99.90;;;;;;5073354;28;20218;-73
2022/06/07 04:32:58;;;;;;;5.80;4.60;;;15.50;99.90;;;;;;5073208;28;20204;-73
2022/06/07 04:35:25;;;;;;;6.97;4.20;;;15.50;99.90;;;;;;5073207;28;20255;-73
2022/06/07 04:37:53;;;;;;;6.03;4.47;;;15.50;99.90;;;;;;5073419;28;20682;-73
2022/06/07 04:40:20;;;;;;;6.27;5.00;;;15.50;99.90;;;;;;5073196;28;20193;-73
2022/06/07 04:42:47;;;;;;;7.30;4.90;;;15.50;99.90;;;;;;5073199;28;20603;-73
2022/06/07 04:45:16;;;;;;;5.70;5.07;;;15.50;99.90;;;;;;5073178;28;20217;-73
2022/06/07 04:47:44;;;;;;;8.20;4.57;;;15.40;99.90;;;;;;5072902;28;20236;-73
2022/06/07 04:50:15;;;;;;;5.43;4.50;;;15.40;99.90;;;;;;5073212;28;20277;-73
2022/06/07 04:52:42;;;;;;;8.40;4.40;;;15.50;99.90;;;;;;5073005;28;20250;-73
2022/06/07 04:55:10;;;;;;;4.63;4.20;;;15.50;99.90;;;;;;5072966;28;20193;-73
2022/06/07 04:57:36;;;;;;;4.87;4.13;;;15.50;99.90;;;;;;5072836;28;20254;-73
2022/06/07 05:00:05;;;;;;;8.20;4.37;;;15.40;99.90;;;;;;5072821;28;20239;-73
2022/06/07 05:02:35;;;;;;;5.93;3.90;;;15.40;99.90;;;;;;5072713;28;20193;-73
2022/06/07 05:05:02;;;;;;;4.70;4.30;;;15.50;99.90;;;;;;5072023;28;20278;-73
2022/06/07 05:07:28;;;;;;;5.50;4.27;;;15.60;99.90;;;;;;5072792;28;20220;-73
2022/06/07 05:09:55;;;;;;;4.83;3.90;;;15.70;99.90;;;;;;5072827;28;20270;-73
2022/06/07 05:12:22;;;;;;;5.07;4.20;;;15.70;99.90;;;;;;5072649;28;20250;-72
2022/06/07 05:14:49;;;;;;;5.45;4.07;;;15.80;99.90;;;;;;5072487;28;20201;-72
2022/06/07 05:17:16;;;;;;;5.20;3.60;;;15.70;99.90;;;;;;5072843;28;20200;-72
2022/06/07 05:19:44;;;;;;;4.63;3.58;;;15.80;99.90;;;;;;5072545;28;20603;-72
2022/06/07 05:22:11;;;;;;;6.20;3.27;;;15.90;99.90;;;;;;5072483;28;20595;-73
2022/06/07 05:24:38;;;;;;;6.95;3.50;;;16.00;99.90;;;;;;5072377;28;20772;-72
2022/06/07 05:27:08;;;;;;;4.05;3.13;;;16.10;99.90;;;;;;5072731;28;20212;-72
2022/06/07 05:29:43;;;;;;;3.60;3.30;;;15.90;99.90;;;;;;5073220;28;20282;-73
2022/06/07 05:32:10;;;;;;;7.67;3.40;;;16.00;99.90;;;;;;5072621;28;20209;-73
2022/06/07 05:34:36;;;;;;;3.40;3.10;;;16.10;99.90;;;;;;5072521;28;20549;-73
2022/06/07 05:37:05;;;;;;;3.55;2.90;;;16.10;99.90;;;;;;5072416;28;20197;-72
2022/06/07 05:39:32;;;;;;;5.53;3.60;;;16.30;99.90;;;;;;5072324;28;20620;-72
2022/06/07 05:42:00;;;;;;;4.70;3.00;;;16.20;99.90;;;;;;5072245;28;20261;-72
2022/06/07 05:44:28;;;;;;;3.03;2.73;;;16.20;99.90;;;;;;5072416;28;20271;-73
2022/06/07 05:46:55;;;;;;;4.60;3.08;;;16.40;99.90;;;;;;5072264;28;20224;-72
2022/06/07 05:49:21;;;;;;;3.35;2.70;;;16.40;99.90;;;;;;5072568;28;20201;-72
2022/06/07 05:51:48;;;;;;;3.13;2.63;;;16.50;99.90;;;;;;5072314;28;20242;-73
2022/06/07 05:54:16;;;;;;;5.03;2.70;;;16.40;99.90;;;;;;5072111;28;20251;-72
2022/06/07 05:56:43;;;;;;;2.58;2.30;;;16.50;99.90;;;;;;5072142;28;20201;-72
2022/06/07 05:59:10;;;;;;;3.95;2.30;;;16.50;99.90;;;;;;5072380;28;20209;-72
2022/06/07 06:01:37;;;;;;;3.50;2.60;;;16.50;99.90;;;;;;5072220;28;20205;-72
2022/06/07 06:04:06;;;;;;;4.60;2.47;;;16.40;99.90;;;;;;5072158;28;20201;-72
2022/06/07 06:06:33;;;;;;;2.30;2.10;;;16.50;99.90;;;;;;5072224;28;20197;-72
2022/06/07 06:11:45;;;;;;;5.15;2.53;;;16.60;99.90;;;;;;5071957;28;20204;-72
2022/06/07 06:14:12;;;;;;;3.78;2.30;;;16.70;99.90;;;;;;5072085;28;20243;-72
2022/06/07 06:16:39;;;;;;;2.53;2.10;;;16.80;99.90;;;;;;5073509;28;20255;-72
2022/06/07 06:19:06;;;;;;;2.60;2.30;;;16.90;99.90;;;;;;5075795;28;20201;-72
2022/06/07 06:21:35;;;;;;;2.88;2.38;;;16.70;99.90;;;;;;5075685;28;20201;-73
2022/06/07 06:24:02;;;;;;;3.42;2.50;;;16.50;99.90;;;;;;5075772;28;20238;-73
2022/06/07 06:26:29;;;;;;;4.20;2.55;;;16.40;99.90;;;;;;5075736;28;20201;-73
2022/06/07 06:28:58;;;;;;;2.63;2.40;;;16.30;99.90;;;;;;5075695;28;20568;-72
2022/06/07 06:31:26;;;;;;;2.60;2.40;;;16.10;99.90;;;;;;5075605;28;20196;-72
2022/06/07 06:33:55;;;;;;;4.00;2.20;;;16.20;99.90;;;;;;5075425;28;20598;-72
2022/06/07 06:36:25;;;;;;;3.78;2.08;;;16.30;99.90;;;;;;5075675;28;20258;-72
2022/06/07 06:38:52;;;;;;;2.53;2.00;;;16.50;99.90;;;;;;5075849;28;20201;-72
2022/06/07 06:41:20;;;;;;;3.83;1.85;;;16.60;99.90;;;;;;5075277;28;20633;-73
2022/06/07 06:43:48;;;;;;;4.20;1.90;;;16.80;99.90;;;;;;5075305;28;20231;-72
2022/06/07 06:46:18;;;;;;;1.80;1.58;;;16.80;99.90;;;;;;5075240;28;20220;-72
2022/06/07 06:48:45;;;;;;;1.77;1.55;;;16.70;99.90;;;;;;5075058;28;20777;-72
2022/06/07 06:51:14;;;;;;;2.42;1.80;;;16.80;99.90;;;;;;5075306;28;20197;-72
2022/06/07 06:53:42;;;;;;;1.80;1.70;;;16.80;99.90;;;;;;5075197;28;20231;-72
2022/06/07 06:56:09;;;;;;;4.68;1.88;;;16.80;99.90;;;;;;5075225;28;20296;-72
2022/06/07 06:58:36;;;;;;;3.88;1.95;;;16.90;99.90;;;;;;5075074;28;20243;-72
2022/06/07 07:01:05;;;;;;;2.05;1.80;;;16.90;99.90;;;;;;5074860;28;20200;-72
2022/06/07 07:03:34;;;;;;;4.22;1.85;;;16.90;99.90;;;;;;5075059;28;20254;-73
2022/06/07 07:06:01;;;;;;;2.25;1.98;;;16.90;99.90;;;;;;5074864;28;20229;-73
2022/06/07 07:08:29;;;;;;;3.13;2.05;;;16.90;99.90;;;;;;5074991;28;20231;-73
2022/06/07 07:11:08;;;;;;;2.53;1.70;;;16.80;99.90;;;;;;5074897;28;20231;-74
2022/06/07 07:13:34;;;;;;;2.05;1.77;;;17.00;99.90;;;;;;5074588;28;20197;-72
2022/06/07 07:16:02;;;;;;;1.88;1.77;;;17.20;99.90;;;;;;5074745;28;20262;-73
2022/06/07 07:18:29;;;;;;;3.42;1.80;;;17.10;99.90;;;;;;5074589;28;20197;-73
2022/06/07 07:20:57;;;;;;;3.05;2.00;;;17.10;99.90;;;;;;5074493;28;20275;-74
2022/06/07 07:23:24;;;;;;;5.18;2.05;;;17.10;99.90;;;;;;5074416;28;20266;-73
2022/06/07 07:25:51;;;;;;;3.55;1.83;;;17.20;99.90;;;;;;5074456;28;20336;-73
2022/06/07 07:28:17;;;;;;;2.28;1.90;;;17.70;99.90;;;;;;5073679;28;20205;-73
2022/06/07 07:30:44;;;;;;;2.08;1.85;;;18.10;99.90;;;;;;5074354;28;20204;-73
2022/06/07 07:33:11;;;;;;;3.55;1.85;;;18.00;99.90;;;;;;5074411;28;20203;-74
2022/06/07 07:35:38;;;;;;;2.42;1.80;;;17.70;99.90;;;;;;5074282;28;20200;-75
2022/06/07 07:38:06;;;;;;;2.63;1.73;;;17.80;99.90;;;;;;5074210;28;20205;-73
2022/06/07 07:40:33;;;;;;;3.45;2.00;;;18.00;99.90;;;;;;5074193;28;20196;-73
2022/06/07 07:42:59;;;;;;;4.85;1.92;;;17.70;99.90;;;;;;5073999;28;20201;-73
2022/06/07 07:45:27;;;;;;;3.10;1.88;;;17.50;99.90;;;;;;5074011;28;20224;-73
2022/06/07 07:47:53;;;;;;;2.00;1.80;;;17.50;99.90;;;;;;5074211;28;20235;-73
2022/06/07 07:50:20;;;;;;;2.10;1.90;;;17.90;99.90;;;;;;5074003;28;20674;-72
2022/06/07 07:52:47;;;;;;;3.13;1.90;;;18.10;99.90;;;;;;5074382;28;20193;-73
2022/06/07 07:55:15;;;;;;;2.65;1.70;;;18.30;99.90;;;;;;5073785;28;20197;-73
2022/06/07 07:57:42;;;;;;;2.35;1.83;;;18.60;99.90;;;;;;5074068;28;20208;-73
2022/06/07 08:00:10;;;;;;;3.13;1.85;;;18.60;99.90;;;;;;5073658;28;20645;-73
2022/06/07 08:02:37;;;;;;;4.07;1.70;;;18.80;99.90;;;;;;5073867;28;20193;-73
2022/06/07 08:05:04;;;;;;;3.53;1.60;;;18.30;99.90;;;;;;5073725;28;20692;-73
2022/06/07 08:07:31;;;;;;;1.90;1.70;;;18.70;99.90;;;;;;5073620;28;20197;-73
2022/06/07 08:09:57;;;;;;;4.57;1.65;;;18.70;99.90;;;;;;5073430;28;20615;-73
2022/06/07 08:12:26;;;;;;;3.42;1.60;;;19.20;99.90;;;;;;5073988;28;20595;-73
2022/06/07 08:14:53;;;;;;;2.63;1.77;;;18.60;99.90;;;;;;5073904;28;20294;-73
2022/06/07 08:17:20;;;;;;;5.95;2.00;;;18.30;99.90;;;;;;5073384;28;20201;-73
2022/06/07 08:19:47;;;;;;;2.20;1.90;;;18.60;99.90;;;;;;5073350;28;20200;-73
2022/06/07 08:22:14;;;;;;;2.03;1.77;;;18.90;99.90;;;;;;5073446;28;20199;-73
2022/06/07 08:24:40;;;;;;;2.70;1.88;;;19.10;99.90;;;;;;5073336;28;20648;-73
2022/06/07 08:27:08;;;;;;;5.25;2.10;;;19.00;99.90;;;;;;5073445;28;20200;-73
2022/06/07 08:29:38;;;;;;;3.42;2.30;;;19.00;99.90;;;;;;5073343;28;20239;-73
2022/06/07 08:32:05;;;;;;;3.72;2.10;;;18.60;99.90;;;;;;5074725;28;20200;-72
2022/06/07 08:37:37;;;;;;;2.95;2.28;;;18.40;99.90;;;;;;5073235;28;20274;-74
2022/06/07 08:40:09;;;;;;;2.38;1.98;;;18.70;99.90;;;;;;5072839;28;20528;-73
2022/06/07 08:42:38;;;;;;;2.00;1.65;;;18.70;99.90;;;;;;5073078;28;20552;-73
2022/06/07 08:45:11;;;;;;;4.68;2.08;;;19.10;99.90;;;;;;5072812;28;20197;-73
2022/06/07 08:47:42;;;;;;;5.53;1.95;;;19.20;99.90;;;;;;5072973;28;20338;-73
2022/06/07 08:50:17;;;;;;;2.35;1.92;;;18.90;99.90;;;;;;5072776;28;20652;-73
2022/06/07 08:52:45;;;;;;;2.33;1.70;;;19.30;99.90;;;;;;5072898;28;20206;-72
2022/06/07 08:55:16;;;;;;;2.95;2.20;;;19.40;99.90;;;;;;5072570;28;20675;-73
2022/06/07 08:57:51;;;;;;;2.10;1.90;;;18.90;99.90;;;;;;5073108;28;20248;-73
2022/06/07 09:00:24;;;;;;;5.45;1.90;;;19.10;99.90;;;;;;5072933;28;20603;-72
2022/06/07 09:03:26;;;;;;;4.07;1.98;;;19.40;99.90;;;;;;5072834;28;20250;-72
2022/06/07 09:05:54;;;;;;;3.83;1.88;;;19.00;99.90;;;;;;5072427;28;20219;-73
2022/06/07 09:08:21;;;;;;;3.55;1.90;;;19.00;99.90;;;;;;5072464;28;20193;-73
2022/06/07 09:13:34;;;;;;;1.92;1.80;;;20.10;99.90;;;;;;5072688;28;20199;-74
2022/06/07 09:16:02;;;;;;;2.15;1.88;;;20.70;99.90;;;;;;5072634;28;20193;-73
2022/06/07 09:18:31;;;;;;;2.10;1.70;;;21.40;99.90;;;;;;5072412;28;20197;-73
2022/06/07 09:21:04;;;;;;;2.95;1.75;;;21.60;99.90;;;;;;5072893;28;20284;-73
2022/06/07 09:23:34;;;;;;;1.65;1.52;;;21.70;99.90;;;;;;5072763;28;20193;-73
2022/06/07 09:26:15;;;;;;;3.85;1.90;;;20.50;99.90;;;;;;5072215;28;20631;-73
2022/06/07 09:28:42;;;;;;;3.40;1.98;;;20.10;99.90;;;;;;5072367;28;20203;-73
2022/06/07 09:31:12;;;;;;;3.85;1.67;;;20.80;99.90;;;;;;5072316;28;20417;-73
2022/06/07 09:33:51;;;;;;;2.45;1.60;;;20.90;99.90;;;;;;5072602;28;20246;-73
2022/06/07 09:36:21;;;;;;;2.80;1.70;;;21.00;99.90;;;;;;5072592;28;20250;-73
2022/06/07 09:38:53;;;;;;;2.47;1.70;;;20.80;99.90;;;;;;5072348;28;20717;-73
2022/06/07 09:41:39;;;;;;;2.60;1.70;;;20.80;99.90;;;;;;5072349;28;20236;-73
2022/06/07 09:44:15;;;;;;;1.75;1.60;;;20.60;99.90;;;;;;5072440;28;20243;-73
2022/06/07 09:46:47;;;;;;;2.28;1.65;;;20.60;99.90;;;;;;5072496;28;20235;-73
2022/06/07 09:49:35;;;;;;;2.58;1.45;;;20.30;99.90;;;;;;5072062;28;20229;-73
2022/06/07 09:52:16;;;;;;;3.08;1.52;;;20.50;99.90;;;;;;5074319;28;20742;-73
2022/06/07 09:54:47;;;;;;;2.70;1.40;;;20.70;99.90;;;;;;5076473;28;20229;-73
2022/06/07 09:57:34;;;;;;;2.17;1.40;;;20.70;99.90;;;;;;5076467;28;20200;-73
2022/06/07 10:00:10;;;;;;;1.42;1.30;;;20.90;99.90;;;;;;5076305;28;20201;-73
2022/06/07 10:03:18;;;;;;;2.50;1.35;;;21.00;99.90;;;;;;5076536;28;20603;-73
2022/06/07 10:05:50;;;;;;;1.95;1.30;;;20.60;99.90;;;;;;5073507;28;20231;-74
2022/06/07 10:08:26;;;;;;;1.55;1.33;;;20.50;99.90;;;;;;5075992;28;20201;-74
2022/06/07 10:10:58;;;;;;;3.13;1.50;;;20.60;99.90;;;;;;5076151;28;20197;-74
2022/06/07 10:13:44;;;;;;;2.88;1.58;;;21.10;99.90;;;;;;5075967;28;20250;-74
2022/06/07 10:16:19;;;;;;;2.88;1.50;;;21.30;99.90;;;;;;5075832;28;20251;-74
2022/06/07 10:18:56;;;;;;;2.85;1.50;;;20.70;99.90;;;;;;5075676;28;20242;-74
2022/06/07 10:21:53;;;;;;;2.60;1.60;;;20.50;99.90;;;;;;5075603;28;20652;-73
2022/06/07 10:24:32;;;;;;;1.80;1.42;;;20.60;99.90;;;;;;5075786;28;20201;-74
2022/06/07 10:27:13;;;;;;;3.67;1.70;;;21.30;99.90;;;;;;5075627;28;20255;-73
2022/06/07 10:30:01;;;;;;;1.65;1.27;;;21.30;99.90;;;;;;5075627;28;20258;-73
2022/06/07 10:32:36;;;;;;;2.53;1.30;;;20.50;99.90;;;;;;5075671;28;20216;-73
2022/06/07 10:35:17;;;;;;;2.75;1.50;;;20.40;99.90;;;;;;5075476;28;20242;-73
2022/06/07 10:37:59;;;;;;;1.40;1.30;;;21.10;99.90;;;;;;5075455;28;20678;-73
2022/06/07 10:40:34;;;;;;;2.47;1.40;;;21.10;99.70;;;;;;5075714;28;20231;-73
2022/06/07 10:43:05;;;;;;;2.35;1.20;;;21.30;99.90;;;;;;5075522;28;20196;-73
2022/06/07 10:45:37;;;;;;;1.30;1.20;;;21.00;99.30;;;;;;5075924;28;20267;-73
2022/06/07 10:48:10;;;;;;;2.13;1.35;;;20.60;99.90;;;;;;5075359;28;20228;-73
2022/06/07 10:50:42;;;;;;;1.70;1.20;;;20.60;99.90;;;;;;5075537;28;20197;-73
2022/06/07 10:53:14;;;;;;;1.23;1.10;;;21.10;99.90;;;;;;5075083;28;20598;-73
2022/06/07 10:55:46;;;;;;;1.95;1.40;;;22.20;97.60;;;;;;5075257;28;20193;-73
2022/06/07 10:58:28;;;;;;;1.80;1.38;;;22.10;96.50;;;;;;5075096;28;20201;-73
2022/06/07 11:01:03;;;;;;;2.22;1.40;;;21.90;96.90;;;;;;5075354;28;20234;-73
2022/06/07 11:03:44;;;;;;;1.95;1.20;;;23.30;94.20;;;;;;5073902;28;20660;-73
2022/06/07 11:11:57;;;;;;;5.15;1.45;;;22.10;86.80;;;;;;5064067;28;20204;-73
2022/06/07 11:14:44;;;;;;;2.70;1.17;;;23.20;80.40;;;;;;5075032;28;20201;-73
2022/06/07 11:17:24;;;;;;;2.28;1.17;;;24.00;74.10;;;;;;5063594;28;20204;-73
2022/06/07 11:19:53;;;;;;;2.28;1.10;;;23.80;69.90;;;;;;5074873;28;20203;-73
2022/06/07 11:22:23;;;;;;;1.00;0.90;;;24.60;64.90;;;;;;5074848;28;20192;-73
2022/06/07 11:24:56;;;;;;;1.42;1.00;;;25.00;61.40;;;;;;5074783;28;20208;-73
2022/06/07 11:27:24;;;;;;;1.58;1.08;;;25.00;54.90;;;;;;5074817;28;20221;-73
2022/06/07 11:30:23;;;;;;;1.80;1.30;;;24.20;54.30;;;;;;5074529;28;20201;-73
2022/06/07 11:32:54;;;;;;;1.67;1.30;;;24.90;57.10;;;;;;5074752;28;20683;-72
2022/06/07 11:35:52;;;;;;;1.55;1.30;;;23.60;63.10;;;;;;5074941;28;20200;-73
2022/06/07 11:38:29;;;;;;;3.30;1.58;;;24.40;61.40;;;;;;5074656;28;20193;-73
2022/06/07 11:43:51;;;;;;;1.70;0.90;;;25.10;55.00;;;;;;5073326;28;20192;-73
2022/06/07 11:46:23;;;;;;;1.63;1.13;;;25.10;53.50;;;;;;5074108;28;20565;-73
2022/06/07 11:48:50;;;;;;;2.17;1.13;;;24.10;55.50;;;;;;5074118;28;20314;-73
2022/06/07 11:51:20;;;;;;;3.08;1.30;;;24.60;57.90;;;;;;5074169;28;20193;-73
2022/06/07 11:53:59;;;;;;;1.85;1.33;;;26.20;55.00;;;;;;5074115;28;20193;-73
2022/06/07 11:56:33;;;;;;;3.35;1.10;;;25.50;52.30;;;;;;5074047;28;20204;-73
2022/06/07 11:59:03;;;;;;;1.40;1.30;;;25.50;51.80;;;;;;5073903;28;20208;-73
2022/06/07 12:01:40;;;;;;;1.83;1.30;;;25.20;52.70;;;;;;5074036;28;20197;-73
2022/06/07 12:04:28;;;;;;;2.42;1.40;;;25.10;55.20;;;;;;5074166;28;20287;-73
2022/06/07 12:06:57;;;;;;;1.85;1.40;;;24.60;55.70;;;;;;5073650;28;20579;-73
2022/06/07 12:09:27;;;;;;;1.95;1.20;;;23.50;58.10;;;;;;5073690;28;20705;-73
2022/06/07 12:11:53;;;;;;;3.97;1.42;;;23.30;59.00;;;;;;5073954;28;20594;-72
2022/06/07 12:14:27;;;;;;;2.95;1.40;;;22.30;57.60;;;;;;5073121;28;20918;-73
2022/06/07 12:17:00;;;;;;;1.88;1.25;;;22.40;56.90;;;;;;5073865;28;20204;-73
2022/06/07 12:19:30;;;;;;;2.83;1.33;;;22.40;58.60;;;;;;5073254;28;20219;-73
2022/06/07 12:22:02;;;;;;;3.28;1.05;;;22.40;58.90;;;;;;5073513;28;20204;-74
2022/06/07 12:24:39;;;;;;;2.03;1.10;;;22.20;56.70;;;;;;5073633;28;20201;-73
2022/06/07 12:27:14;;;;;;;3.45;1.20;;;22.40;55.60;;;;;;5073733;28;20315;-73
2022/06/07 12:29:44;;;;;;;4.50;1.40;;;22.80;57.60;;;;;;5073613;28;20196;-73
2022/06/07 12:32:18;;;;;;;2.30;1.33;;;22.30;57.20;;;;;;5073254;28;20200;-73
2022/06/07 12:34:44;;;;;;;2.03;1.30;;;22.20;57.20;;;;;;5073143;28;20201;-73
2022/06/07 12:37:23;;;;;;;2.80;1.38;;;22.70;58.80;;;;;;5073350;28;20271;-73
2022/06/07 12:39:54;;;;;;;4.40;1.75;;;23.50;56.90;;;;;;5073204;28;20203;-73
2022/06/07 12:42:22;;;;;;;2.80;1.40;;;24.60;57.50;;;;;;5073244;28;20483;-73
2022/06/07 12:44:53;;;;;;;2.33;1.50;;;26.00;53.20;;;;;;5073303;28;20227;-73
2022/06/07 12:47:24;;;;;;;2.20;1.20;;;26.60;49.60;;;;;;5073373;28;20239;-74
2022/06/07 12:49:51;;;;;;;2.25;1.30;;;27.50;48.10;;;;;;5073058;28;20205;-73
2022/06/07 12:52:20;;;;;;;1.52;1.25;;;25.90;47.20;;;;;;5073066;28;20193;-73
2022/06/07 12:54:49;;;;;;;2.08;1.38;;;25.20;46.60;;;;;;5073266;28;20201;-74
2022/06/07 12:57:23;;;;;;;2.53;1.20;;;24.50;48.60;;;;;;5072909;28;20314;-74
2022/06/07 12:59:53;;;;;;;2.55;1.30;;;23.70;49.30;;;;;;5073159;28;20208;-73
2022/06/07 13:02:23;;;;;;;1.70;1.20;;;22.80;49.70;;;;;;5073007;28;20258;-73
2022/06/07 13:04:52;;;;;;;2.67;1.50;;;22.80;50.80;;;;;;5072865;28;20201;-74
2022/06/07 13:07:22;;;;;;;2.33;1.40;;;22.20;53.10;;;;;;5072704;28;20221;-74
2022/06/07 13:09:53;;;;;;;2.17;1.23;;;22.50;53.70;;;;;;5073205;28;20694;-73
2022/06/07 13:12:26;;;;;;;2.35;1.30;;;22.80;55.00;;;;;;5072945;28;20197;-73
2022/06/07 13:14:54;;;;;;;2.42;1.40;;;22.70;55.40;;;;;;5073106;28;20197;-72
2022/06/07 13:17:31;;;;;;;3.03;1.27;;;24.30;53.90;;;;;;5072751;28;20197;-72
2022/06/07 13:19:58;;;;;;;1.90;1.15;;;25.00;52.10;;;;;;5072676;28;20200;-72
2022/06/07 13:22:27;;;;;;;2.03;1.30;;;25.40;45.60;;;;;;5072546;28;20196;-72
2022/06/07 13:24:56;;;;;;;1.70;1.20;;;26.30;44.90;;;;;;5072661;28;20201;-73
2022/06/07 13:27:43;;;;;;;2.13;1.05;;;28.30;42.80;;;;;;5071676;28;20236;-73